Time;durP1;ratioP1;P1;durP2;ratioP2;P2;SDS_P1;SDS_P2;PMS_P1;PMS_P2;Temp;Humidity;BMP_temperature;BMP_pressure;BME280_temperature;BME280_humidity;BME280_pressure;Samples;Min_cycle;Max_cycle;Signal;HPM_P1;HPM_P2
2021/12/28 00:02:22;;;;;;;15.27;6.60;;;;;;;-4.10;100.00;100576.94;4999276;28;20169;-63
2021/12/28 00:05:09;;;;;;;;;;;;;;;-3.97;100.00;100576.72;5000635;28;20088;-64
2021/12/28 00:07:55;;;;;;;12.70;6.05;;;;;;;-3.90;100.00;100572.72;4991576;28;20020;-64
2021/12/28 00:10:40;;;;;;;12.80;6.18;;;;;;;-4.14;100.00;100587.03;5006591;28;20069;-65
2021/12/28 00:13:27;;;;;;;17.35;6.38;;;;;;;-4.13;100.00;100579.34;5002151;28;20060;-62
2021/12/28 00:16:28;;;;;;;15.57;6.35;;;;;;;-4.27;100.00;100582.97;5002394;28;20525;-64
2021/12/28 00:19:13;;;;;;;15.23;6.70;;;;;;;-4.07;100.00;100581.38;5001934;28;20564;-62
2021/12/28 00:21:57;;;;;;;16.77;7.10;;;;;;;-4.01;100.00;100576.47;5003547;28;20470;-65
2021/12/28 00:24:43;;;;;;;13.98;7.05;;;;;;;-4.31;100.00;100574.94;5005027;28;20051;-64
2021/12/28 00:27:28;;;;;;;14.98;7.45;;;;;;;-4.26;100.00;100568.28;4982517;28;20049;-63
2021/12/28 00:30:13;;;;;;;14.57;6.90;;;;;;;-3.98;100.00;100580.13;5002236;28;20136;-65
2021/12/28 00:32:59;;;;;;;14.07;6.70;;;;;;;-4.17;100.00;100580.00;4976501;28;20061;-62
2021/12/28 00:35:44;;;;;;;15.57;6.65;;;;;;;-4.26;100.00;100576.06;4998849;28;20044;-66
2021/12/28 00:38:31;;;;;;;15.35;7.03;;;;;;;-4.41;100.00;100577.84;5005290;28;20048;-62
2021/12/28 00:41:16;;;;;;;15.35;7.50;;;;;;;-4.53;100.00;100572.97;5003303;28;20119;-64
2021/12/28 00:44:00;;;;;;;16.20;7.32;;;;;;;-4.71;100.00;100584.03;5006029;28;20044;-63
2021/12/28 00:46:45;;;;;;;15.05;7.07;;;;;;;-4.77;100.00;100584.59;4962606;28;20388;-63
2021/12/28 00:49:30;;;;;;;;;;;;;;;-4.78;100.00;100586.28;5004975;28;20103;-66
2021/12/28 00:52:14;;;;;;;17.00;7.10;;;;;;;-4.63;100.00;100587.94;5007422;28;20333;-64
2021/12/28 00:54:59;;;;;;;10.73;5.57;;;;;;;-4.61;100.00;100582.03;5005113;28;20477;-64
2021/12/28 00:57:45;;;;;;;12.63;5.22;;;;;;;-4.52;100.00;100582.50;4993771;28;20082;-63
2021/12/28 01:00:33;;;;;;;10.35;5.05;;;;;;;-4.34;100.00;100582.56;5023748;28;20802;-62
2021/12/28 01:03:19;;;;;;;6.20;3.28;;;;;;;-4.40;100.00;100582.25;5010634;28;20060;-66
2021/12/28 01:06:07;;;;;;;7.43;3.58;;;;;;;-4.34;100.00;100586.03;5017961;28;20259;-65
2021/12/28 01:08:52;;;;;;;6.07;3.25;;;;;;;-4.13;100.00;100584.53;5011266;28;20087;-65
2021/12/28 01:11:37;;;;;;;6.93;3.45;;;;;;;-4.13;100.00;100579.34;5013171;28;20445;-62
2021/12/28 01:14:22;;;;;;;14.90;6.85;;;;;;;-3.98;100.00;100587.91;5001988;28;20049;-64
2021/12/28 01:17:07;;;;;;;11.45;4.97;;;;;;;-4.19;100.00;100592.00;5029626;28;20053;-63
2021/12/28 01:19:52;;;;;;;13.15;6.18;;;;;;;-4.25;100.00;100591.69;5011569;28;20052;-60
2021/12/28 01:22:37;;;;;;;17.10;6.53;;;;;;;-4.05;100.00;100598.75;5013812;28;20119;-62
2021/12/28 01:25:24;;;;;;;14.98;6.50;;;;;;;-3.99;100.00;100599.06;5014514;28;20068;-62
2021/12/28 01:28:11;;;;;;;15.55;7.13;;;;;;;-4.39;100.00;100602.13;5013989;28;20167;-67
2021/12/28 01:30:56;;;;;;;14.60;6.47;;;;;;;-4.61;100.00;100602.72;5014584;28;20102;-62
2021/12/28 01:33:41;;;;;;;16.48;7.30;;;;;;;-4.71;100.00;100607.31;5012755;28;20125;-62
2021/12/28 01:36:26;;;;;;;18.00;7.50;;;;;;;-4.80;100.00;100604.25;5012672;28;20056;-64
2021/12/28 01:39:13;;;;;;;15.40;7.65;;;;;;;-4.91;100.00;100619.16;5001638;28;20158;-62
2021/12/28 01:42:05;;;;;;;17.77;8.15;;;;;;;-4.84;100.00;100625.59;5028571;28;20148;-60
2021/12/28 01:44:51;;;;;;;17.48;8.38;;;;;;;-4.90;100.00;100620.97;5007981;28;20040;-60
2021/12/28 01:47:36;;;;;;;17.65;7.13;;;;;;;-5.04;100.00;100627.09;5006827;28;20044;-61
2021/12/28 01:50:20;;;;;;;;;;;;;;;-4.97;100.00;100626.63;5026000;28;20576;-61
2021/12/28 01:53:07;;;;;;;14.00;7.10;;;;;;;-4.73;100.00;100625.34;5031431;28;19928;-60
2021/12/28 01:55:56;;;;;;;15.63;7.05;;;;;;;-4.60;100.00;100627.75;5013569;28;20056;-62
2021/12/28 01:58:42;;;;;;;16.05;6.97;;;;;;;-4.74;100.00;100622.69;4994218;28;20064;-62
2021/12/28 02:01:27;;;;;;;15.90;7.07;;;;;;;-4.59;100.00;100628.66;5006168;28;20410;-61
2021/12/28 02:04:16;;;;;;;15.77;7.18;;;;;;;-4.41;100.00;100625.34;5007560;28;20421;-62
2021/12/28 02:07:02;;;;;;;15.65;7.45;;;;;;;-4.38;100.00;100622.03;5006384;28;20103;-62
2021/12/28 02:09:49;;;;;;;15.68;7.45;;;;;;;-4.38;100.00;100641.03;5007666;28;20100;-62
2021/12/28 02:12:34;;;;;;;16.42;7.60;;;;;;;-4.38;100.00;100625.50;5007091;28;20100;-63
2021/12/28 02:15:19;;;;;;;15.73;7.72;;;;;;;-4.04;100.00;100631.59;4984326;28;20052;-65
2021/12/28 02:18:06;;;;;;;19.25;7.55;;;;;;;-3.87;100.00;100637.63;5007512;28;20084;-63
2021/12/28 02:20:53;;;;;;;15.77;7.18;;;;;;;-3.84;100.00;100643.84;5003401;28;20173;-63
2021/12/28 02:23:39;;;;;;;15.25;7.60;;;;;;;-3.99;100.00;100647.38;5002926;28;20584;-65
2021/12/28 02:26:25;;;;;;;17.00;8.10;;;;;;;-3.73;100.00;100655.66;4988186;28;20147;-61
2021/12/28 02:29:10;;;;;;;17.58;7.88;;;;;;;-3.83;100.00;100650.81;5003767;28;20116;-66
2021/12/28 02:31:55;;;;;;;15.10;8.23;;;;;;;-4.31;100.00;100656.09;4996720;28;20584;-63
2021/12/28 02:34:41;;;;;;;19.30;8.45;;;;;;;-4.59;100.00;100660.59;4991390;28;20057;-62
2021/12/28 02:37:28;;;;;;;20.70;9.30;;;;;;;-4.89;100.00;100666.72;5007790;28;20053;-62
2021/12/28 02:40:17;;;;;;;18.98;8.43;;;;;;;-4.95;100.00;100666.34;5007607;28;20418;-61
2021/12/28 02:43:05;;;;;;;19.88;9.07;;;;;;;-4.95;100.00;100663.78;5005871;28;20433;-67
2021/12/28 02:45:58;;;;;;;20.70;8.65;;;;;;;-4.86;100.00;100665.16;4965516;28;20054;-64
2021/12/28 02:48:45;;;;;;;16.02;8.43;;;;;;;-4.64;100.00;100667.22;5006965;28;20061;-62
2021/12/28 02:51:30;;;;;;;14.88;7.43;;;;;;;-4.56;100.00;100665.94;5005953;28;20061;-63
2021/12/28 02:54:15;;;;;;;16.65;8.05;;;;;;;-4.55;100.00;100665.13;5008464;28;20053;-63
2021/12/28 02:57:00;;;;;;;19.42;8.45;;;;;;;-4.56;100.00;100670.25;5005088;28;20160;-63
2021/12/28 02:59:48;;;;;;;21.10;9.43;;;;;;;-4.71;100.00;100665.09;5012807;28;20136;-64
2021/12/28 03:02:33;;;;;;;20.83;9.40;;;;;;;-4.52;100.00;100674.75;5011121;28;20183;-62
2021/12/28 03:05:17;;;;;;;18.60;10.27;;;;;;;-4.57;100.00;100671.03;4998815;28;20052;-64
2021/12/28 03:08:05;;;;;;;22.90;9.63;;;;;;;-4.44;100.00;100671.75;4993183;28;20457;-65
2021/12/28 03:10:54;;;;;;;23.15;10.05;;;;;;;-4.24;100.00;100672.81;5011531;28;20087;-69
2021/12/28 03:13:46;;;;;;;21.50;10.15;;;;;;;-4.41;100.00;100669.34;5025879;28;20164;-62
2021/12/28 03:16:32;;;;;;;19.13;8.20;;;;;;;-4.61;100.00;100676.84;5012685;28;20115;-64
2021/12/28 03:19:17;;;;;;;18.38;8.40;;;;;;;-4.49;100.00;100667.13;5027154;28;20076;-64
2021/12/28 03:22:02;;;;;;;15.43;7.60;;;;;;;-4.57;100.00;100671.03;5023763;28;20103;-65
2021/12/28 03:24:47;;;;;;;18.23;8.32;;;;;;;-4.59;100.00;100678.69;5025116;28;20052;-65
2021/12/28 03:27:33;;;;;;;21.17;8.25;;;;;;;-4.61;100.00;100676.84;5026568;28;20049;-65
2021/12/28 03:30:18;;;;;;;18.75;8.73;;;;;;;-4.55;100.00;100669.41;5010541;28;20052;-67
2021/12/28 03:33:03;;;;;;;22.00;9.18;;;;;;;-4.61;100.00;100676.84;5025995;28;20055;-69
2021/12/28 03:35:49;;;;;;;24.33;9.32;;;;;;;-4.63;100.00;100687.09;4999954;28;20179;-63
2021/12/28 03:38:38;;;;;;;18.30;9.35;;;;;;;-4.44;100.00;100679.50;5024773;28;20056;-69
2021/12/28 03:41:26;;;;;;;19.85;8.05;;;;;;;-4.33;100.00;100677.50;5011396;28;20111;-64
2021/12/28 03:44:11;;;;;;;21.05;9.27;;;;;;;-4.12;100.00;100683.81;5024414;28;20052;-63
2021/12/28 03:46:56;;;;;;;21.90;8.45;;;;;;;-4.28;100.00;100679.50;5026270;28;20052;-67
2021/12/28 03:49:41;;;;;;;;;;;;;;;-4.07;100.00;100678.06;5024618;28;20091;-62
2021/12/28 03:52:27;;;;;;;18.92;7.85;;;;;;;-4.06;100.00;100663.41;5025504;28;19923;-67
2021/12/28 03:55:12;;;;;;;;;;;;;;;-3.77;100.00;100681.34;5012213;28;20104;-63
2021/12/28 03:58:00;;;;;;;12.27;7.00;;;;;;;-3.88;100.00;100678.19;5009459;28;19928;-63
2021/12/28 04:00:48;;;;;;;16.10;7.38;;;;;;;-4.20;100.00;100680.81;5011556;28;20083;-69
2021/12/28 04:03:36;;;;;;;14.52;7.40;;;;;;;-4.32;100.00;100687.94;5024512;28;20468;-64
2021/12/28 04:06:23;;;;;;;16.83;8.20;;;;;;;-4.53;100.00;100691.97;5005349;28;20048;-66
2021/12/28 04:09:11;;;;;;;20.98;8.63;;;;;;;-4.34;100.00;100688.66;5025563;28;20064;-63
2021/12/28 04:11:57;;;;;;;18.33;8.65;;;;;;;-4.45;100.00;100694.97;5023945;28;20127;-63
2021/12/28 04:14:42;;;;;;;21.40;8.27;;;;;;;-4.47;100.00;100691.41;5024001;28;20134;-64
2021/12/28 04:17:28;;;;;;;18.70;8.25;;;;;;;-4.39;100.00;100701.38;5022502;28;20123;-65
2021/12/28 04:20:16;;;;;;;19.92;8.23;;;;;;;-4.15;100.00;100681.97;5009139;28;20048;-66
2021/12/28 04:23:01;;;;;;;18.45;7.97;;;;;;;-4.10;100.00;100698.63;5007442;28;20044;-68
2021/12/28 04:25:46;;;;;;;18.23;8.07;;;;;;;-4.35;100.00;100690.38;5024102;28;20047;-63
2021/12/28 04:28:34;;;;;;;16.17;7.65;;;;;;;-4.26;100.00;100692.53;5025579;28;20055;-67
2021/12/28 04:31:19;;;;;;;24.08;10.18;;;;;;;-4.27;100.00;100694.25;4996537;28;20141;-63
2021/12/28 04:34:04;;;;;;;24.13;9.57;;;;;;;-4.16;100.00;100693.09;5025382;28;20137;-63
2021/12/28 04:36:50;;;;;;;22.63;8.50;;;;;;;-4.13;100.00;100687.19;5007414;28;20107;-66
2021/12/28 04:39:35;;;;;;;17.52;8.20;;;;;;;-4.19;100.00;100697.25;4994952;28;20052;-66
2021/12/28 04:42:20;;;;;;;14.85;6.85;;;;;;;-4.33;100.00;100701.69;5009105;28;20200;-63
2021/12/28 04:45:08;;;;;;;18.20;7.38;;;;;;;-4.37;100.00;100706.59;5023952;28;20528;-63
2021/12/28 04:47:53;;;;;;;12.27;6.38;;;;;;;-4.46;100.00;100712.19;4996926;28;20099;-64
2021/12/28 04:50:40;;;;;;;13.20;5.82;;;;;;;-4.52;100.00;100708.41;5010188;28;20190;-64
2021/12/28 04:53:26;;;;;;;12.63;5.90;;;;;;;-4.57;100.00;100712.41;5010382;28;20060;-68
2021/12/28 04:56:10;;;;;;;14.02;5.25;;;;;;;-4.64;100.00;100721.53;4999076;28;20067;-63
2021/12/28 04:58:55;;;;;;;11.20;4.68;;;;;;;-4.75;100.00;100724.38;5022254;28;20694;-60
2021/12/28 05:01:40;;;;;;;8.63;4.20;;;;;;;-4.68;100.00;100721.31;5025417;28;20481;-62
2021/12/28 05:04:25;;;;;;;9.30;4.70;;;;;;;-4.66;100.00;100717.09;4989663;28;20073;-63
2021/12/28 05:07:10;;;;;;;16.88;7.60;;;;;;;-4.68;100.00;100714.41;4990705;28;20076;-65
2021/12/28 05:09:57;;;;;;;14.57;6.78;;;;;;;-4.98;100.00;100731.72;5011944;28;20071;-63
2021/12/28 05:12:44;;;;;;;15.50;6.88;;;;;;;-5.13;100.00;100733.47;5009529;28;20060;-75
2021/12/28 05:15:29;;;;;;;14.63;6.32;;;;;;;-4.92;100.00;100737.25;4995545;28;20099;-65
2021/12/28 05:18:15;;;;;;;12.80;6.28;;;;;;;-4.84;100.00;100750.59;4999540;28;20040;-65
2021/12/28 05:21:00;;;;;;;10.75;5.22;;;;;;;-4.78;100.00;100753.53;5010210;28;20137;-66
2021/12/28 05:23:45;;;;;;;9.30;4.45;;;;;;;-4.69;100.00;100754.03;4991542;28;20057;-64
2021/12/28 05:26:29;;;;;;;12.18;5.18;;;;;;;-4.72;100.00;100747.81;5021519;28;20095;-65
2021/12/28 05:29:13;;;;;;;11.25;4.47;;;;;;;-4.30;100.00;100760.50;5024668;28;20053;-65
2021/12/28 05:31:58;;;;;;;13.50;5.90;;;;;;;-4.29;100.00;100759.69;5009229;28;20100;-68
2021/12/28 05:34:43;;;;;;;13.60;6.65;;;;;;;-4.37;100.00;100774.81;5010860;28;20429;-63
2021/12/28 05:37:28;;;;;;;;;;;;;;;-4.61;100.00;100783.81;5022208;28;20422;-63
2021/12/28 05:40:14;;;;;;;18.05;8.07;;;;;;;-4.87;100.00;100784.03;5025891;28;19924;-65
2021/12/28 05:42:59;;;;;;;17.20;8.25;;;;;;;-4.87;100.00;100790.09;5010590;28;20199;-63
2021/12/28 05:45:44;;;;;;;15.68;7.93;;;;;;;-4.71;100.00;100789.25;5025305;28;20040;-63
2021/12/28 05:48:29;;;;;;;16.58;7.82;;;;;;;-4.48;100.00;100782.81;5025184;28;20540;-65
2021/12/28 05:51:15;;;;;;;16.30;7.50;;;;;;;-4.29;100.00;100785.56;5014672;28;20083;-71
2021/12/28 05:54:00;;;;;;;16.13;8.07;;;;;;;-4.16;100.00;100793.19;4973615;28;20521;-65
2021/12/28 05:56:46;;;;;;;20.65;8.55;;;;;;;-4.35;100.00;100787.81;5024853;28;20096;-66
2021/12/28 05:59:32;;;;;;;18.23;8.52;;;;;;;-4.34;100.00;100789.59;5013515;28;20068;-63
2021/12/28 06:02:17;;;;;;;19.65;9.23;;;;;;;-3.96;100.00;100798.63;5022614;28;20052;-65
2021/12/28 06:05:03;;;;;;;16.30;7.82;;;;;;;-3.61;100.00;100800.50;5028105;28;20084;-71
2021/12/28 06:07:49;;;;;;;20.00;8.43;;;;;;;-3.63;100.00;100805.59;5013473;28;20052;-65
2021/12/28 06:10:34;;;;;;;20.20;8.85;;;;;;;-3.94;100.00;100791.84;5009537;28;20048;-70
2021/12/28 06:13:19;;;;;;;20.27;9.68;;;;;;;-3.91;100.00;100801.47;5029077;28;20060;-63
2021/12/28 06:16:06;;;;;;;19.38;7.80;;;;;;;-3.87;100.00;100806.00;5028030;28;20056;-66
2021/12/28 06:18:54;;;;;;;17.33;8.52;;;;;;;-3.66;100.00;100799.34;5014111;28;20463;-64
2021/12/28 06:21:39;;;;;;;21.08;9.60;;;;;;;-3.62;100.00;100806.47;5027501;28;20092;-64
2021/12/28 06:24:23;;;;;;;;;;;;;;;-3.43;100.00;100812.69;5012393;28;20107;-72
2021/12/28 06:27:08;;;;;;;20.40;9.27;;;;;;;-3.79;100.00;100812.47;5030817;28;20035;-66
2021/12/28 06:29:53;;;;;;;20.77;9.48;;;;;;;-4.22;100.00;100804.13;5011203;28;20056;-64
2021/12/28 06:32:38;;;;;;;19.40;9.02;;;;;;;-4.69;100.00;100817.81;5013622;28;20556;-65
2021/12/28 06:35:24;;;;;;;23.40;10.38;;;;;;;-4.95;100.00;100813.72;5012569;28;20057;-69
2021/12/28 06:38:09;;;;;;;20.95;9.77;;;;;;;-4.61;100.00;100813.94;5012038;28;20060;-65
2021/12/28 06:40:53;;;;;;;22.50;10.52;;;;;;;-4.74;100.00;100809.81;5012964;28;20048;-66
2021/12/28 06:43:38;;;;;;;21.05;10.15;;;;;;;-4.64;100.00;100806.91;4992571;28;20072;-69
2021/12/28 06:46:23;;;;;;;24.85;10.52;;;;;;;-4.38;100.00;100814.44;4981579;28;20045;-67
2021/12/28 06:49:08;;;;;;;24.58;11.43;;;;;;;-3.93;100.00;100814.34;5009656;28;20053;-64
2021/12/28 06:51:53;;;;;;;23.13;10.30;;;;;;;-3.49;100.00;100816.69;5013506;28;20048;-69
2021/12/28 06:54:39;;;;;;;25.55;11.23;;;;;;;-3.16;100.00;100814.09;5020710;28;20225;-61
2021/12/28 06:57:24;;;;;;;28.00;11.68;;;;;;;-2.95;100.00;100816.88;4999105;28;22087;-62
2021/12/28 07:00:14;;;;;;;29.50;14.13;;;;;;;-2.88;100.00;100819.84;4997432;28;20108;-65
2021/12/28 07:02:59;;;;;;;33.75;12.60;;;;;;;-2.97;100.00;100821.97;5025558;28;20143;-64
2021/12/28 07:05:45;;;;;;;27.67;11.73;;;;;;;-3.11;100.00;100814.31;5011465;28;20052;-63
2021/12/28 07:08:30;;;;;;;24.23;10.48;;;;;;;-3.60;100.00;100813.50;5010657;28;20111;-62
2021/12/28 07:11:18;;;;;;;31.48;13.35;;;;;;;-4.02;100.00;100819.03;5011154;28;20536;-66
2021/12/28 07:14:03;;;;;;;27.65;11.98;;;;;;;-4.02;100.00;100824.19;5008212;28;20060;-66
2021/12/28 07:16:47;;;;;;;25.92;11.05;;;;;;;-4.30;100.00;100820.94;5009549;28;20053;-64
2021/12/28 07:19:32;;;;;;;27.67;13.27;;;;;;;-4.28;100.00;100814.13;5027134;28;20536;-65
2021/12/28 07:22:17;;;;;;;24.02;12.35;;;;;;;-4.29;100.00;100835.63;5007550;28;20064;-60
2021/12/28 07:25:05;;;;;;;25.60;11.50;;;;;;;-4.48;100.00;100840.59;5020201;28;20056;-63
2021/12/28 07:27:50;;;;;;;19.80;10.50;;;;;;;-4.41;100.00;100815.94;5011463;28;20052;-62
2021/12/28 07:30:35;;;;;;;26.02;11.25;;;;;;;-4.27;100.00;100831.47;5010432;28;20540;-72
2021/12/28 07:33:21;;;;;;;29.02;11.35;;;;;;;-3.93;100.00;100840.22;5011398;28;20072;-65
2021/12/28 07:36:06;;;;;;;22.08;10.23;;;;;;;-3.40;100.00;100835.28;4980109;28;20133;-63
2021/12/28 07:38:51;;;;;;;23.58;11.40;;;;;;;-3.01;100.00;100837.31;5027035;28;20057;-63
2021/12/28 07:41:36;;;;;;;22.23;9.57;;;;;;;-2.82;100.00;100843.50;5011688;28;20098;-63
2021/12/28 07:44:21;;;;;;;22.80;9.82;;;;;;;-2.70;100.00;100841.50;4996649;28;20092;-63
2021/12/28 07:47:05;;;;;;;19.23;9.55;;;;;;;-2.80;100.00;100846.16;5026766;28;20053;-60
2021/12/28 07:49:50;;;;;;;25.58;10.73;;;;;;;-2.71;100.00;100844.94;5010824;28;20088;-68
2021/12/28 07:52:36;;;;;;;23.67;10.85;;;;;;;-2.72;100.00;100853.53;5016559;28;20492;-63
2021/12/28 07:55:21;;;;;;;23.23;12.32;;;;;;;-2.78;100.00;100850.63;5023463;28;20262;-69
2021/12/28 07:58:06;;;;;;;22.92;10.82;;;;;;;-2.59;100.00;100857.59;5025679;28;20060;-60
2021/12/28 08:00:51;;;;;;;;;;;;;;;-2.72;100.00;100847.44;5011516;28;20869;-59
2021/12/28 08:03:35;;;;;;;21.48;10.85;;;;;;;-2.63;100.00;100848.78;5028315;28;19931;-59
2021/12/28 08:06:20;;;;;;;24.77;10.95;;;;;;;-2.76;100.00;100850.69;5013476;28;20532;-65
2021/12/28 08:09:05;;;;;;;20.77;10.07;;;;;;;-2.64;100.00;100856.50;5026477;28;20095;-69
2021/12/28 08:11:50;;;;;;;;;;;;;;;-2.65;100.00;100862.50;5026472;28;20051;-61
2021/12/28 08:14:35;;;;;;;19.00;10.20;;;;;;;-2.66;100.00;100863.28;5010068;28;20050;-60
2021/12/28 08:17:20;;;;;;;;;;;;;;;-2.43;100.00;100862.72;5011300;28;20060;-65
2021/12/28 08:20:07;;;;;;;19.75;9.45;;;;;;;-2.66;100.00;100858.09;5010605;28;20705;-65
2021/12/28 08:22:51;;;;;;;19.90;9.88;;;;;;;-2.43;100.00;100867.91;5014049;28;20111;-62
2021/12/28 08:25:37;;;;;;;20.08;10.38;;;;;;;-2.16;100.00;100862.34;5024797;28;20516;-63
2021/12/28 08:28:25;;;;;;;19.30;10.23;;;;;;;-1.73;100.00;100860.03;5023896;28;20634;-70
2021/12/28 08:31:10;;;;;;;23.88;10.32;;;;;;;-1.73;100.00;100865.22;4996840;28;20095;-63
2021/12/28 08:33:56;;;;;;;19.60;9.50;;;;;;;-1.51;100.00;100865.38;4976701;28;20481;-66
2021/12/28 08:36:40;;;;;;;19.15;10.48;;;;;;;-1.44;100.00;100864.81;5019082;28;20724;-63
2021/12/28 08:39:27;;;;;;;20.05;10.02;;;;;;;-1.54;100.00;100852.25;5004156;28;20044;-66
2021/12/28 08:42:11;;;;;;;21.38;10.27;;;;;;;-1.95;100.00;100862.44;4997306;28;20063;-65
2021/12/28 08:44:56;;;;;;;21.67;10.68;;;;;;;-2.02;100.00;100865.59;4997239;28;20052;-67
2021/12/28 08:47:42;;;;;;;21.65;10.55;;;;;;;-2.21;100.00;100858.63;5008520;28;20099;-67
2021/12/28 08:50:28;;;;;;;18.65;9.77;;;;;;;-2.14;100.00;100859.84;5009914;28;20076;-64
2021/12/28 08:53:14;;;;;;;19.92;10.70;;;;;;;-2.10;100.00;100841.84;5004504;28;20059;-64
2021/12/28 08:56:02;;;;;;;24.85;10.50;;;;;;;-1.76;100.00;100863.38;5024929;28;20064;-66
2021/12/28 08:58:51;;;;;;;19.30;10.48;;;;;;;-0.83;100.00;100864.94;5009992;28;20636;-65
2021/12/28 09:01:36;;;;;;;23.25;10.40;;;;;;;0.13;100.00;100866.31;5007940;28;20060;-67
2021/12/28 09:04:20;;;;;;;25.05;11.30;;;;;;;0.17;100.00;100856.00;4999646;28;20053;-64
2021/12/28 09:07:05;;;;;;;20.05;10.68;;;;;;;-0.20;100.00;100859.78;5006453;28;20212;-65
2021/12/28 09:09:51;;;;;;;23.40;11.30;;;;;;;-0.30;100.00;100865.47;4997142;28;20088;-65
2021/12/28 09:12:37;;;;;;;21.92;11.18;;;;;;;-0.03;100.00;100853.50;5025491;28;20084;-63
2021/12/28 09:15:23;;;;;;;21.85;11.25;;;;;;;1.56;100.00;100865.41;5025404;28;20988;-71
2021/12/28 09:18:10;;;;;;;25.70;10.88;;;;;;;2.74;100.00;100863.03;5025334;28;20060;-66
2021/12/28 09:20:56;;;;;;;21.60;11.15;;;;;;;3.93;100.00;100869.69;5007582;28;20437;-63
2021/12/28 09:23:41;;;;;;;21.48;10.95;;;;;;;5.25;100.00;100859.41;5020458;28;20425;-64
2021/12/28 09:26:30;;;;;;;19.55;10.68;;;;;;;6.27;95.84;100870.78;5006803;28;20056;-64
2021/12/28 09:29:17;;;;;;;20.17;11.18;;;;;;;7.24;86.72;100860.66;4977489;28;20096;-68
2021/12/28 09:32:03;;;;;;;18.45;10.15;;;;;;;7.64;77.81;100868.94;5006542;28;20134;-63
2021/12/28 09:34:51;;;;;;;18.95;10.55;;;;;;;8.27;72.57;100874.78;4973447;28;20052;-60
2021/12/28 09:37:37;;;;;;;20.50;10.85;;;;;;;8.97;67.19;100871.66;5028372;28;20060;-64
2021/12/28 09:40:22;;;;;;;18.02;11.35;;;;;;;9.13;61.93;100877.88;5016155;28;20142;-66
2021/12/28 09:43:08;;;;;;;18.60;11.40;;;;;;;9.27;58.40;100873.50;5026880;28;20107;-66
2021/12/28 09:45:53;;;;;;;18.63;12.43;;;;;;;9.06;58.14;100884.91;5028721;28;20048;-66
2021/12/28 09:48:39;;;;;;;19.02;11.90;;;;;;;8.51;55.99;100884.66;5011655;28;20592;-65
2021/12/28 09:51:23;;;;;;;20.20;11.85;;;;;;;8.08;62.02;100879.91;5024267;28;20064;-58
2021/12/28 09:54:08;;;;;;;19.98;12.40;;;;;;;8.30;62.95;100887.13;5026133;28;20539;-64
2021/12/28 09:56:56;;;;;;;20.40;12.77;;;;;;;8.05;62.56;100893.97;5028087;28;20092;-63
2021/12/28 09:59:41;;;;;;;20.55;12.10;;;;;;;7.93;63.59;100887.69;5008296;28;20080;-63
2021/12/28 10:02:27;;;;;;;19.67;12.02;;;;;;;7.11;66.99;100893.91;5012431;28;20071;-70
2021/12/28 10:05:17;;;;;;;20.65;12.60;;;;;;;6.71;81.54;100891.63;5013527;28;20096;-63
2021/12/28 10:08:05;;;;;;;23.08;13.35;;;;;;;6.89;91.44;100893.63;5026904;28;20057;-67
2021/12/28 10:10:57;;;;;;;22.23;13.38;;;;;;;7.22;91.12;100887.00;5000089;28;20049;-65
2021/12/28 10:13:42;;;;;;;24.85;13.00;;;;;;;7.28;87.84;100891.47;5016033;28;20048;-63
2021/12/28 10:16:44;;;;;;;24.92;14.25;;;;;;;7.31;100.00;100899.38;4997322;28;20056;-62
2021/12/28 10:19:38;;;;;;;20.73;13.40;;;;;;;6.87;100.00;100893.59;5015625;28;20559;-69
2021/12/28 10:22:34;;;;;;;19.38;13.68;;;;;;;7.35;100.00;100907.38;5027332;28;20067;-63
2021/12/28 10:25:26;;;;;;;22.63;12.52;;;;;;;7.30;100.00;100890.59;5018558;28;20605;-59
2021/12/28 10:28:15;;;;;;;24.20;15.20;;;;;;;7.27;100.00;100914.31;5011198;28;20600;-63
2021/12/28 10:31:08;;;;;;;21.45;13.20;;;;;;;7.92;100.00;100907.91;5014067;28;20065;-63
2021/12/28 10:33:56;;;;;;;22.45;12.70;;;;;;;7.01;100.00;100906.97;5013243;28;20052;-62
2021/12/28 10:36:43;;;;;;;20.63;12.65;;;;;;;5.94;96.07;100901.88;4998248;28;20579;-64
2021/12/28 10:39:51;;;;;;;21.33;13.35;;;;;;;7.03;100.00;100911.38;5028011;28;20103;-60
2021/12/28 10:42:54;;;;;;;19.25;12.57;;;;;;;8.17;100.00;100902.00;4984386;28;20064;-64
2021/12/28 10:45:42;;;;;;;23.40;13.55;;;;;;;8.75;100.00;100912.09;5015221;28;20559;-65
2021/12/28 10:48:32;;;;;;;21.15;12.38;;;;;;;8.85;93.55;100913.00;5011977;28;20465;-67
2021/12/28 10:51:22;;;;;;;21.55;12.52;;;;;;;8.57;83.54;100912.00;5012596;28;20125;-62
2021/12/28 10:54:13;;;;;;;23.00;12.25;;;;;;;7.88;77.27;100914.06;4989018;28;20064;-63
2021/12/28 10:56:58;;;;;;;22.85;12.77;;;;;;;7.79;78.74;100910.47;5013143;28;20075;-70
2021/12/28 10:59:43;;;;;;;23.45;13.50;;;;;;;6.83;79.97;100909.34;5030014;28;20140;-62
2021/12/28 11:02:28;;;;;;;;;;;;;;;6.48;79.78;100914.13;5012383;28;20099;-61
2021/12/28 11:05:35;;;;;;;22.15;12.43;;;;;;;7.62;88.16;100907.66;5001552;28;20426;-61
2021/12/28 11:08:24;;;;;;;20.92;12.68;;;;;;;7.90;80.83;100920.25;5012947;28;20524;-61
2021/12/28 11:11:11;;;;;;;21.38;12.25;;;;;;;7.60;75.80;100911.16;5027994;28;20227;-59
2021/12/28 11:14:03;;;;;;;23.25;12.77;;;;;;;7.51;76.01;100916.31;5000037;28;20053;-60
2021/12/28 11:16:56;;;;;;;22.15;13.82;;;;;;;7.61;80.79;100907.63;4991829;28;20141;-59
2021/12/28 11:19:42;;;;;;;21.27;12.70;;;;;;;7.24;80.71;100914.25;4992834;28;20044;-62
2021/12/28 11:22:26;;;;;;;23.25;13.65;;;;;;;8.15;81.30;100918.72;5000164;28;20120;-60
2021/12/28 11:25:19;;;;;;;23.20;13.90;;;;;;;7.38;73.52;100923.25;4993587;28;20125;-64
2021/12/28 11:28:14;;;;;;;24.67;13.55;;;;;;;6.43;78.59;100921.09;5006685;28;20084;-65
2021/12/28 11:31:10;;;;;;;24.38;13.45;;;;;;;5.02;79.53;100922.91;5008978;28;20073;-58
2021/12/28 11:34:04;;;;;;;21.58;13.57;;;;;;;6.14;82.28;100924.16;4995853;28;20080;-60
2021/12/28 11:36:53;;;;;;;21.25;12.63;;;;;;;5.53;79.61;100927.44;5005917;28;20072;-62
2021/12/28 11:39:48;;;;;;;18.58;11.73;;;;;;;6.58;79.49;100923.97;4979291;28;20061;-60
2021/12/28 11:42:33;;;;;;;21.13;12.93;;;;;;;5.55;77.98;100924.81;5007047;28;20148;-71
2021/12/28 11:45:20;;;;;;;27.15;13.88;;;;;;;4.00;81.06;100918.84;5006230;28;20053;-58
2021/12/28 11:48:07;;;;;;;20.77;13.18;;;;;;;3.26;88.74;100926.50;5007977;28;20096;-64
2021/12/28 11:50:54;;;;;;;22.63;12.82;;;;;;;2.12;95.99;100929.19;5006390;28;20066;-70
2021/12/28 11:53:44;;;;;;;22.27;13.60;;;;;;;1.99;100.00;100933.97;4986970;28;20085;-68
2021/12/28 11:56:32;;;;;;;26.85;13.93;;;;;;;1.02;100.00;100934.06;4984972;28;20077;-61
2021/12/28 11:59:23;;;;;;;24.02;12.43;;;;;;;0.58;100.00;100942.81;4992287;28;20056;-60
2021/12/28 12:02:13;;;;;;;23.10;13.32;;;;;;;0.12;100.00;100948.81;4998278;28;20203;-67
2021/12/28 12:04:59;;;;;;;27.20;14.32;;;;;;;-0.01;100.00;100948.31;4996472;28;20355;-62
2021/12/28 12:07:46;;;;;;;25.73;13.35;;;;;;;0.12;100.00;100952.31;5024008;28;20052;-62
2021/12/28 12:10:36;;;;;;;23.05;12.30;;;;;;;-0.39;100.00;100955.38;4997747;28;20056;-64
2021/12/28 12:13:26;;;;;;;24.05;12.15;;;;;;;0.05;100.00;100958.09;4998477;28;20053;-64
2021/12/28 12:16:17;;;;;;;27.42;13.38;;;;;;;-0.24;100.00;100956.00;4995212;28;20417;-62
2021/12/28 12:19:02;;;;;;;23.65;13.05;;;;;;;-0.60;100.00;100957.06;5024635;28;20091;-66
2021/12/28 12:21:48;;;;;;;24.98;12.65;;;;;;;-1.11;100.00;100953.06;5025411;28;20166;-68
2021/12/28 12:24:39;;;;;;;24.95;12.43;;;;;;;-1.25;100.00;100962.00;5008441;28;20171;-61
2021/12/28 12:27:52;;;;;;;23.02;11.75;;;;;;;-1.23;100.00;100962.94;5010856;28;20099;-62
2021/12/28 12:30:45;;;;;;;23.80;10.88;;;;;;;-1.83;100.00;100965.28;4994166;28;20140;-67
2021/12/28 12:33:42;;;;;;;23.20;11.38;;;;;;;-1.83;100.00;100964.38;4982755;28;20045;-62
2021/12/28 12:36:32;;;;;;;21.35;10.30;;;;;;;-2.12;100.00;100967.28;5023513;28;20052;-68
2021/12/28 12:39:23;;;;;;;20.98;10.02;;;;;;;-2.18;100.00;100974.78;5016929;28;20421;-61
2021/12/28 12:42:13;;;;;;;22.73;10.25;;;;;;;-2.22;100.00;100963.34;5017460;28;20467;-58